UAL185 PGUM-PTYA
Flight info
| Callsign | UAL185 |
|---|---|
| Flight time | 1h 15m |
| Altitude | 34000 |
| Route | IDAAS YP |
| Aircraft | B738/M-SDE2E3FGHIRWXY/LB1 |
Departure
| Time | 2026-04-20 21:26 |
|---|---|
| Airport | Antonio B. Won Pat International Airport (PGUM) |
Arrival
| Time | 2026-04-20 22:42 |
|---|---|
| Airport | Yap International Airport (PTYA) |
| Time | Latitude | Longitude | Altitude | Speed | Heading |
|---|---|---|---|---|---|
| 2026-04-20 21:13 | 13.49139 | 144.80464 | 295 ft | 0 kts | 332° |
| 2026-04-20 21:15 | 13.49138 | 144.80465 | 295 ft | 2 kts | 332° |
| 2026-04-20 21:15 | 13.49115 | 144.80477 | 295 ft | 4 kts | 330° |
| 2026-04-20 21:15 | 13.49092 | 144.80491 | 297 ft | 4 kts | 330° |
| 2026-04-20 21:16 | 13.49070 | 144.80503 | 298 ft | 4 kts | 320° |
| 2026-04-20 21:16 | 13.49059 | 144.80523 | 297 ft | 4 kts | 257° |
| 2026-04-20 21:16 | 13.49068 | 144.80544 | 298 ft | 1 kts | 240° |
| 2026-04-20 21:16 | 13.49070 | 144.80547 | 299 ft | 0 kts | 240° |
| 2026-04-20 21:20 | 13.49026 | 144.80470 | 295 ft | 14 kts | 233° |
| 2026-04-20 21:20 | 13.48961 | 144.80398 | 295 ft | 14 kts | 220° |
| 2026-04-20 21:20 | 13.48905 | 144.80323 | 295 ft | 13 kts | 236° |
| 2026-04-20 21:20 | 13.48860 | 144.80243 | 295 ft | 13 kts | 240° |
| 2026-04-20 21:21 | 13.48821 | 144.80163 | 293 ft | 12 kts | 243° |
| 2026-04-20 21:21 | 13.48781 | 144.80082 | 294 ft | 15 kts | 244° |
| 2026-04-20 21:21 | 13.48715 | 144.79946 | 294 ft | 28 kts | 242° |
| 2026-04-20 21:21 | 13.48648 | 144.79788 | 288 ft | 25 kts | 246° |
| 2026-04-20 21:22 | 13.48579 | 144.79637 | 289 ft | 23 kts | 244° |
| 2026-04-20 21:22 | 13.48514 | 144.79492 | 286 ft | 21 kts | 245° |
| 2026-04-20 21:22 | 13.48454 | 144.79364 | 285 ft | 20 kts | 246° |
| 2026-04-20 21:22 | 13.48398 | 144.79238 | 289 ft | 19 kts | 245° |
| 2026-04-20 21:23 | 13.48341 | 144.79115 | 284 ft | 18 kts | 245° |
| 2026-04-20 21:23 | 13.48282 | 144.78987 | 284 ft | 23 kts | 244° |
| 2026-04-20 21:23 | 13.48216 | 144.78843 | 283 ft | 20 kts | 245° |
| 2026-04-20 21:23 | 13.48160 | 144.78716 | 284 ft | 18 kts | 245° |
| 2026-04-20 21:24 | 13.48107 | 144.78602 | 282 ft | 17 kts | 245° |
| 2026-04-20 21:24 | 13.48058 | 144.78495 | 280 ft | 16 kts | 244° |
| 2026-04-20 21:24 | 13.48010 | 144.78392 | 279 ft | 16 kts | 244° |
| 2026-04-20 21:24 | 13.47964 | 144.78292 | 282 ft | 15 kts | 245° |
| 2026-04-20 21:25 | 13.47920 | 144.78196 | 278 ft | 15 kts | 244° |
| 2026-04-20 21:25 | 13.47835 | 144.78143 | 268 ft | 20 kts | 155° |
| 2026-04-20 21:25 | 13.47850 | 144.78304 | 266 ft | 45 kts | 66° |
| 2026-04-20 21:25 | 13.48092 | 144.78832 | 276 ft | 116 kts | 64° |
| 2026-04-20 21:26 | 13.48529 | 144.79761 | 382 ft | 165 kts | 64° |
| 2026-04-20 21:26 | 13.49042 | 144.80845 | 1209 ft | 166 kts | 64° |
| 2026-04-20 21:26 | 13.49554 | 144.81912 | 1927 ft | 173 kts | 63° |
| 2026-04-20 21:26 | 13.50294 | 144.83005 | 2223 ft | 202 kts | 39° |
| 2026-04-20 21:27 | 13.51667 | 144.83565 | 2418 ft | 229 kts | 4° |
| 2026-04-20 21:27 | 13.53260 | 144.83208 | 2850 ft | 249 kts | 334° |
| 2026-04-20 21:27 | 13.54593 | 144.81974 | 3325 ft | 267 kts | 303° |
| 2026-04-20 21:27 | 13.55206 | 144.80187 | 4188 ft | 271 kts | 276° |
| 2026-04-20 21:28 | 13.54907 | 144.78270 | 4959 ft | 276 kts | 248° |
| 2026-04-20 21:28 | 13.54040 | 144.76517 | 5844 ft | 276 kts | 239° |
| 2026-04-20 21:28 | 13.53027 | 144.74832 | 6647 ft | 277 kts | 236° |
| 2026-04-20 21:28 | 13.51986 | 144.73169 | 7485 ft | 277 kts | 236° |
| 2026-04-20 21:29 | 13.50928 | 144.71486 | 8178 ft | 282 kts | 236° |
| 2026-04-20 21:29 | 13.49873 | 144.69793 | 9008 ft | 282 kts | 236° |
| 2026-04-20 21:29 | 13.48805 | 144.68068 | 9652 ft | 290 kts | 237° |
| 2026-04-20 21:29 | 13.47728 | 144.66315 | 10364 ft | 292 kts | 237° |
| 2026-04-20 21:30 | 13.46611 | 144.64490 | 10601 ft | 313 kts | 237° |
| 2026-04-20 21:30 | 13.45420 | 144.62537 | 10895 ft | 329 kts | 237° |
| 2026-04-20 21:30 | 13.44189 | 144.60511 | 11352 ft | 338 kts | 237° |
| 2026-04-20 21:30 | 13.42938 | 144.58445 | 11982 ft | 342 kts | 237° |
| 2026-04-20 21:31 | 13.41655 | 144.56360 | 12491 ft | 351 kts | 237° |
| 2026-04-20 21:31 | 13.40308 | 144.54215 | 12882 ft | 362 kts | 236° |
| 2026-04-20 21:31 | 13.38967 | 144.52074 | 13654 ft | 361 kts | 237° |
| 2026-04-20 21:31 | 13.37617 | 144.49900 | 14317 ft | 362 kts | 237° |
| 2026-04-20 21:32 | 13.36267 | 144.47706 | 14948 ft | 365 kts | 237° |
| 2026-04-20 21:32 | 13.34911 | 144.45487 | 15547 ft | 369 kts | 237° |
| 2026-04-20 21:32 | 13.33547 | 144.43243 | 16152 ft | 372 kts | 238° |
| 2026-04-20 21:32 | 13.32174 | 144.40979 | 16777 ft | 375 kts | 238° |
| 2026-04-20 21:33 | 13.30793 | 144.38697 | 17367 ft | 378 kts | 238° |
| 2026-04-20 21:33 | 13.29402 | 144.36397 | 17972 ft | 381 kts | 238° |
| 2026-04-20 21:33 | 13.27993 | 144.34067 | 18467 ft | 386 kts | 238° |
| 2026-04-20 21:33 | 13.26569 | 144.31712 | 18912 ft | 390 kts | 238° |
| 2026-04-20 21:34 | 13.25134 | 144.29339 | 19428 ft | 393 kts | 238° |
| 2026-04-20 21:34 | 13.23687 | 144.26946 | 19894 ft | 396 kts | 238° |
| 2026-04-20 21:34 | 13.22227 | 144.24532 | 20343 ft | 400 kts | 238° |
| 2026-04-20 21:34 | 13.20750 | 144.22091 | 20789 ft | 404 kts | 238° |
| 2026-04-20 21:35 | 13.19260 | 144.19631 | 21231 ft | 408 kts | 239° |
| 2026-04-20 21:35 | 13.17758 | 144.17150 | 21671 ft | 411 kts | 239° |
| 2026-04-20 21:35 | 13.16241 | 144.14646 | 22089 ft | 415 kts | 238° |
| 2026-04-20 21:35 | 13.14711 | 144.12121 | 22520 ft | 418 kts | 238° |
| 2026-04-20 21:36 | 13.13170 | 144.09577 | 22951 ft | 421 kts | 239° |
| 2026-04-20 21:36 | 13.11615 | 144.07012 | 23331 ft | 425 kts | 239° |
| 2026-04-20 21:36 | 13.10044 | 144.04422 | 23661 ft | 430 kts | 239° |
| 2026-04-20 21:36 | 13.08462 | 144.01815 | 24062 ft | 430 kts | 239° |
| 2026-04-20 21:37 | 13.06880 | 143.99209 | 24477 ft | 431 kts | 239° |
| 2026-04-20 21:37 | 13.05288 | 143.96586 | 24769 ft | 435 kts | 239° |
| 2026-04-20 21:37 | 13.03693 | 143.93959 | 25290 ft | 431 kts | 239° |
| 2026-04-20 21:37 | 13.02112 | 143.91356 | 25847 ft | 429 kts | 239° |
| 2026-04-20 21:38 | 13.00532 | 143.88757 | 26222 ft | 431 kts | 238° |
| 2026-04-20 21:38 | 12.98942 | 143.86140 | 26556 ft | 434 kts | 239° |
| 2026-04-20 21:38 | 12.97345 | 143.83513 | 27007 ft | 434 kts | 239° |
| 2026-04-20 21:38 | 12.95757 | 143.80901 | 27596 ft | 430 kts | 239° |
| 2026-04-20 21:39 | 12.94178 | 143.78305 | 28176 ft | 427 kts | 239° |
| 2026-04-20 21:39 | 12.92607 | 143.75724 | 28642 ft | 427 kts | 239° |
| 2026-04-20 21:39 | 12.91033 | 143.73136 | 29068 ft | 429 kts | 239° |
| 2026-04-20 21:39 | 12.89453 | 143.70540 | 29570 ft | 427 kts | 239° |
| 2026-04-20 21:40 | 12.87909 | 143.68005 | 30165 ft | 423 kts | 239° |
| 2026-04-20 21:40 | 12.86333 | 143.65418 | 30606 ft | 422 kts | 239° |
| 2026-04-20 21:40 | 12.84775 | 143.62860 | 30949 ft | 424 kts | 239° |
| 2026-04-20 21:40 | 12.83213 | 143.60296 | 31355 ft | 423 kts | 239° |
| 2026-04-20 21:41 | 12.81659 | 143.57748 | 31863 ft | 420 kts | 239° |
| 2026-04-20 21:41 | 12.80113 | 143.55214 | 32292 ft | 419 kts | 239° |
| 2026-04-20 21:41 | 12.78566 | 143.52677 | 32644 ft | 420 kts | 239° |
| 2026-04-20 21:41 | 12.77018 | 143.50140 | 33008 ft | 420 kts | 239° |
| 2026-04-20 21:42 | 12.75492 | 143.47639 | 33430 ft | 419 kts | 239° |
| 2026-04-20 21:42 | 12.73950 | 143.45113 | 33855 ft | 417 kts | 239° |
| 2026-04-20 21:42 | 12.72404 | 143.42582 | 33956 ft | 423 kts | 239° |
| 2026-04-20 21:43 | 12.69273 | 143.37456 | 33963 ft | 422 kts | 239° |
| 2026-04-20 21:43 | 12.66190 | 143.32413 | 33963 ft | 415 kts | 239° |
| 2026-04-20 21:44 | 12.63118 | 143.27391 | 33978 ft | 417 kts | 239° |
| 2026-04-20 21:44 | 12.60026 | 143.22337 | 33970 ft | 420 kts | 239° |
| 2026-04-20 21:45 | 12.56920 | 143.17263 | 33970 ft | 422 kts | 239° |
| 2026-04-20 21:45 | 12.53799 | 143.12168 | 33969 ft | 423 kts | 239° |
| 2026-04-20 21:46 | 12.50669 | 143.07061 | 33967 ft | 424 kts | 239° |
| 2026-04-20 21:46 | 12.47556 | 143.01986 | 33965 ft | 423 kts | 239° |
| 2026-04-20 21:47 | 12.44430 | 142.96892 | 33964 ft | 422 kts | 239° |
| 2026-04-20 21:47 | 12.41317 | 142.91821 | 33964 ft | 420 kts | 239° |
| 2026-04-20 21:48 | 12.38210 | 142.86763 | 33966 ft | 419 kts | 239° |
| 2026-04-20 21:48 | 12.35113 | 142.81723 | 33967 ft | 418 kts | 239° |
| 2026-04-20 21:49 | 12.32018 | 142.76690 | 33965 ft | 418 kts | 239° |
| 2026-04-20 21:49 | 12.28921 | 142.71657 | 33969 ft | 418 kts | 239° |
| 2026-04-20 21:50 | 12.25819 | 142.66617 | 33972 ft | 419 kts | 239° |
| 2026-04-20 21:50 | 12.22708 | 142.61566 | 33968 ft | 420 kts | 239° |
| 2026-04-20 21:51 | 12.19580 | 142.56490 | 33984 ft | 427 kts | 239° |
| 2026-04-20 21:51 | 12.16360 | 142.51265 | 33981 ft | 441 kts | 239° |
| 2026-04-20 21:52 | 12.13037 | 142.45877 | 33972 ft | 455 kts | 239° |
| 2026-04-20 21:52 | 12.09639 | 142.40371 | 33971 ft | 464 kts | 239° |
| 2026-04-20 21:53 | 12.06183 | 142.34777 | 33963 ft | 467 kts | 239° |
| 2026-04-20 21:53 | 12.02714 | 142.29166 | 33962 ft | 467 kts | 239° |
| 2026-04-20 21:54 | 11.99247 | 142.23558 | 33956 ft | 466 kts | 239° |
| 2026-04-20 21:54 | 11.95790 | 142.17972 | 33963 ft | 464 kts | 239° |
| 2026-04-20 21:55 | 11.92909 | 142.13318 | 33964 ft | 462 kts | 239° |
| 2026-04-20 21:55 | 11.89508 | 142.07826 | 33964 ft | 460 kts | 239° |
| 2026-04-20 21:56 | 11.86096 | 142.02321 | 33964 ft | 458 kts | 239° |
| 2026-04-20 21:56 | 11.82690 | 141.96827 | 33969 ft | 457 kts | 239° |
| 2026-04-20 21:57 | 11.79287 | 141.91341 | 33966 ft | 458 kts | 239° |
| 2026-04-20 21:57 | 11.75878 | 141.85848 | 33965 ft | 458 kts | 238° |
| 2026-04-20 21:58 | 11.72461 | 141.80347 | 33966 ft | 460 kts | 239° |
| 2026-04-20 21:58 | 11.69033 | 141.74830 | 33970 ft | 461 kts | 239° |
| 2026-04-20 21:59 | 11.65593 | 141.69298 | 33966 ft | 462 kts | 238° |
| 2026-04-20 21:59 | 11.62144 | 141.63753 | 33965 ft | 463 kts | 238° |
| 2026-04-20 22:00 | 11.58688 | 141.58200 | 33967 ft | 464 kts | 238° |
| 2026-04-20 22:00 | 11.55226 | 141.52641 | 33972 ft | 464 kts | 238° |
| 2026-04-20 22:01 | 11.51759 | 141.47077 | 33970 ft | 465 kts | 238° |
| 2026-04-20 22:01 | 11.48296 | 141.41521 | 33967 ft | 464 kts | 238° |
| 2026-04-20 22:02 | 11.44831 | 141.35966 | 33964 ft | 463 kts | 238° |
| 2026-04-20 22:02 | 11.41376 | 141.30428 | 33965 ft | 462 kts | 238° |
| 2026-04-20 22:03 | 11.37936 | 141.24898 | 33966 ft | 461 kts | 239° |
| 2026-04-20 22:03 | 11.34653 | 141.19345 | 33967 ft | 460 kts | 240° |
| 2026-04-20 22:04 | 11.31398 | 141.13736 | 33967 ft | 459 kts | 240° |
| 2026-04-20 22:04 | 11.28133 | 141.08137 | 33967 ft | 459 kts | 240° |
| 2026-04-20 22:05 | 11.24858 | 141.02551 | 33967 ft | 459 kts | 240° |
| 2026-04-20 22:05 | 11.21577 | 140.96967 | 33968 ft | 460 kts | 240° |
| 2026-04-20 22:06 | 11.18289 | 140.91377 | 33968 ft | 460 kts | 240° |
| 2026-04-20 22:06 | 11.14999 | 140.85785 | 33966 ft | 461 kts | 240° |
| 2026-04-20 22:07 | 11.11701 | 140.80181 | 33972 ft | 461 kts | 240° |
| 2026-04-20 22:07 | 11.08395 | 140.74569 | 33969 ft | 462 kts | 240° |
| 2026-04-20 22:08 | 11.05089 | 140.68959 | 33963 ft | 462 kts | 240° |
| 2026-04-20 22:08 | 11.01781 | 140.63347 | 33963 ft | 462 kts | 240° |
| 2026-04-20 22:09 | 10.98472 | 140.57738 | 33968 ft | 462 kts | 240° |
| 2026-04-20 22:09 | 10.95162 | 140.52129 | 33967 ft | 462 kts | 240° |
| 2026-04-20 22:10 | 10.91852 | 140.46524 | 33964 ft | 462 kts | 240° |
| 2026-04-20 22:10 | 10.88542 | 140.40921 | 33966 ft | 462 kts | 240° |
| 2026-04-20 22:11 | 10.85232 | 140.35322 | 33964 ft | 462 kts | 240° |
| 2026-04-20 22:11 | 10.81944 | 140.29762 | 33965 ft | 462 kts | 240° |
| 2026-04-20 22:12 | 10.78631 | 140.24163 | 33964 ft | 462 kts | 240° |
| 2026-04-20 22:12 | 10.75316 | 140.18565 | 33964 ft | 462 kts | 240° |
| 2026-04-20 22:13 | 10.71998 | 140.12964 | 33963 ft | 462 kts | 240° |
| 2026-04-20 22:13 | 10.68680 | 140.07366 | 33963 ft | 462 kts | 240° |
| 2026-04-20 22:14 | 10.65364 | 140.01773 | 33961 ft | 462 kts | 240° |
| 2026-04-20 22:14 | 10.62045 | 139.96180 | 33961 ft | 462 kts | 240° |
| 2026-04-20 22:15 | 10.58725 | 139.90586 | 33965 ft | 462 kts | 240° |
| 2026-04-20 22:15 | 10.55403 | 139.84993 | 33964 ft | 462 kts | 240° |
| 2026-04-20 22:16 | 10.52082 | 139.79404 | 33962 ft | 462 kts | 240° |
| 2026-04-20 22:16 | 10.48756 | 139.73810 | 33962 ft | 462 kts | 240° |
| 2026-04-20 22:17 | 10.45430 | 139.68218 | 33962 ft | 462 kts | 240° |
| 2026-04-20 22:17 | 10.42103 | 139.62628 | 33962 ft | 462 kts | 240° |
| 2026-04-20 22:17 | 10.40435 | 139.59824 | 33639 ft | 466 kts | 240° |
| 2026-04-20 22:18 | 10.38758 | 139.57008 | 33119 ft | 465 kts | 240° |
| 2026-04-20 22:18 | 10.37084 | 139.54197 | 32512 ft | 465 kts | 239° |
| 2026-04-20 22:18 | 10.35410 | 139.51388 | 31896 ft | 465 kts | 239° |
| 2026-04-20 22:18 | 10.33735 | 139.48577 | 31261 ft | 466 kts | 239° |
| 2026-04-20 22:19 | 10.32052 | 139.45754 | 30575 ft | 468 kts | 239° |
| 2026-04-20 22:19 | 10.30367 | 139.42928 | 30092 ft | 466 kts | 239° |
| 2026-04-20 22:19 | 10.28715 | 139.40159 | 29505 ft | 463 kts | 239° |
| 2026-04-20 22:19 | 10.27055 | 139.37376 | 28982 ft | 459 kts | 239° |
| 2026-04-20 22:20 | 10.25409 | 139.34617 | 28469 ft | 455 kts | 239° |
| 2026-04-20 22:20 | 10.23776 | 139.31882 | 27970 ft | 451 kts | 239° |
| 2026-04-20 22:20 | 10.22160 | 139.29175 | 27479 ft | 447 kts | 239° |
| 2026-04-20 22:20 | 10.20554 | 139.26486 | 26994 ft | 443 kts | 239° |
| 2026-04-20 22:21 | 10.18964 | 139.23824 | 26512 ft | 440 kts | 239° |
| 2026-04-20 22:21 | 10.17384 | 139.21178 | 26034 ft | 437 kts | 239° |
| 2026-04-20 22:21 | 10.15813 | 139.18550 | 25551 ft | 434 kts | 239° |
| 2026-04-20 22:21 | 10.14253 | 139.15939 | 25059 ft | 432 kts | 239° |
| 2026-04-20 22:22 | 10.12701 | 139.13344 | 24575 ft | 430 kts | 239° |
| 2026-04-20 22:22 | 10.11154 | 139.10756 | 24094 ft | 428 kts | 239° |
| 2026-04-20 22:22 | 10.09614 | 139.08181 | 23619 ft | 426 kts | 239° |
| 2026-04-20 22:22 | 10.08080 | 139.05617 | 23061 ft | 424 kts | 239° |
| 2026-04-20 22:23 | 10.06556 | 139.03069 | 22559 ft | 420 kts | 239° |
| 2026-04-20 22:23 | 10.05045 | 139.00545 | 22077 ft | 417 kts | 239° |
| 2026-04-20 22:23 | 10.03547 | 138.98042 | 21600 ft | 413 kts | 239° |
| 2026-04-20 22:23 | 10.02063 | 138.95563 | 21137 ft | 409 kts | 239° |
| 2026-04-20 22:24 | 10.00593 | 138.93108 | 20674 ft | 406 kts | 239° |
| 2026-04-20 22:24 | 9.99132 | 138.90669 | 20218 ft | 403 kts | 238° |
| 2026-04-20 22:24 | 9.97683 | 138.88250 | 19759 ft | 400 kts | 238° |
| 2026-04-20 22:24 | 9.96243 | 138.85846 | 19301 ft | 397 kts | 238° |
| 2026-04-20 22:25 | 9.94809 | 138.83455 | 18834 ft | 396 kts | 238° |
| 2026-04-20 22:25 | 9.93386 | 138.81080 | 18370 ft | 394 kts | 238° |
| 2026-04-20 22:25 | 9.91966 | 138.78713 | 17870 ft | 391 kts | 238° |
| 2026-04-20 22:25 | 9.90557 | 138.76364 | 17402 ft | 388 kts | 238° |
| 2026-04-20 22:26 | 9.89162 | 138.74038 | 16935 ft | 385 kts | 238° |
| 2026-04-20 22:26 | 9.87777 | 138.71730 | 16487 ft | 381 kts | 238° |
| 2026-04-20 22:26 | 9.86405 | 138.69443 | 16044 ft | 378 kts | 238° |
| 2026-04-20 22:27 | 9.83713 | 138.64957 | 15184 ft | 372 kts | 238° |
| 2026-04-20 22:27 | 9.82373 | 138.62726 | 14755 ft | 369 kts | 239° |
| 2026-04-20 22:27 | 9.81041 | 138.60507 | 14304 ft | 367 kts | 239° |
| 2026-04-20 22:27 | 9.79717 | 138.58301 | 13879 ft | 365 kts | 239° |
| 2026-04-20 22:28 | 9.78400 | 138.56109 | 13411 ft | 363 kts | 239° |
| 2026-04-20 22:28 | 9.77094 | 138.53935 | 12961 ft | 359 kts | 239° |
| 2026-04-20 22:28 | 9.75822 | 138.51770 | 12533 ft | 356 kts | 243° |
| 2026-04-20 22:28 | 9.74818 | 138.49501 | 12149 ft | 351 kts | 249° |
| 2026-04-20 22:29 | 9.73969 | 138.47194 | 11734 ft | 347 kts | 250° |
| 2026-04-20 22:29 | 9.73165 | 138.44898 | 11327 ft | 344 kts | 251° |
| 2026-04-20 22:29 | 9.72366 | 138.42622 | 10922 ft | 341 kts | 250° |
| 2026-04-20 22:29 | 9.71562 | 138.40372 | 10520 ft | 338 kts | 250° |
| 2026-04-20 22:30 | 9.70761 | 138.38166 | 10366 ft | 328 kts | 250° |
| 2026-04-20 22:30 | 9.69978 | 138.36034 | 10213 ft | 318 kts | 250° |
| 2026-04-20 22:30 | 9.69214 | 138.33970 | 10075 ft | 308 kts | 249° |
| 2026-04-20 22:30 | 9.68469 | 138.31967 | 9928 ft | 300 kts | 249° |
| 2026-04-20 22:31 | 9.67734 | 138.29995 | 9591 ft | 298 kts | 249° |
| 2026-04-20 22:31 | 9.67003 | 138.28035 | 9278 ft | 296 kts | 249° |
| 2026-04-20 22:31 | 9.66277 | 138.26092 | 8966 ft | 293 kts | 249° |
| 2026-04-20 22:31 | 9.65558 | 138.24167 | 8664 ft | 291 kts | 249° |
| 2026-04-20 22:32 | 9.64842 | 138.22252 | 8350 ft | 290 kts | 249° |
| 2026-04-20 22:32 | 9.64129 | 138.20349 | 8039 ft | 289 kts | 249° |
| 2026-04-20 22:32 | 9.63419 | 138.18451 | 7732 ft | 287 kts | 249° |
| 2026-04-20 22:32 | 9.62714 | 138.16565 | 7423 ft | 286 kts | 249° |
| 2026-04-20 22:33 | 9.62009 | 138.14684 | 7124 ft | 285 kts | 249° |
| 2026-04-20 22:33 | 9.61307 | 138.12810 | 6816 ft | 284 kts | 249° |
| 2026-04-20 22:33 | 9.60608 | 138.10942 | 6517 ft | 283 kts | 249° |
| 2026-04-20 22:33 | 9.59910 | 138.09080 | 6211 ft | 282 kts | 249° |
| 2026-04-20 22:34 | 9.59213 | 138.07220 | 5871 ft | 282 kts | 249° |
| 2026-04-20 22:34 | 9.58516 | 138.05360 | 5545 ft | 282 kts | 249° |
| 2026-04-20 22:34 | 9.57821 | 138.03506 | 5237 ft | 281 kts | 249° |
| 2026-04-20 22:34 | 9.57129 | 138.01658 | 4942 ft | 280 kts | 249° |
| 2026-04-20 22:35 | 9.56438 | 137.99816 | 4643 ft | 279 kts | 249° |
| 2026-04-20 22:35 | 9.55760 | 137.98006 | 4340 ft | 278 kts | 249° |
| 2026-04-20 22:35 | 9.55068 | 137.96162 | 4136 ft | 273 kts | 249° |
| 2026-04-20 22:35 | 9.54412 | 137.94413 | 4011 ft | 266 kts | 249° |
| 2026-04-20 22:36 | 9.53763 | 137.92686 | 3875 ft | 258 kts | 249° |
| 2026-04-20 22:36 | 9.53036 | 137.91060 | 3778 ft | 250 kts | 233° |
| 2026-04-20 22:36 | 9.51724 | 137.90001 | 3715 ft | 239 kts | 201° |
| 2026-04-20 22:36 | 9.50130 | 137.89700 | 3623 ft | 230 kts | 177° |
| 2026-04-20 22:37 | 9.48586 | 137.89986 | 3523 ft | 222 kts | 162° |
| 2026-04-20 22:37 | 9.47136 | 137.90459 | 3392 ft | 216 kts | 160° |
| 2026-04-20 22:37 | 9.45830 | 137.91126 | 3168 ft | 207 kts | 133° |
| 2026-04-20 22:37 | 9.45142 | 137.92332 | 2993 ft | 194 kts | 102° |
| 2026-04-20 22:38 | 9.45113 | 137.93656 | 2788 ft | 187 kts | 76° |
| 2026-04-20 22:38 | 9.45489 | 137.94885 | 2604 ft | 178 kts | 71° |
| 2026-04-20 22:38 | 9.45878 | 137.96071 | 2408 ft | 178 kts | 71° |
| 2026-04-20 22:38 | 9.46267 | 137.97248 | 2158 ft | 175 kts | 71° |
| 2026-04-20 22:39 | 9.46650 | 137.98408 | 1951 ft | 175 kts | 71° |
| 2026-04-20 22:39 | 9.47035 | 137.99576 | 1720 ft | 173 kts | 71° |
| 2026-04-20 22:39 | 9.47409 | 138.00709 | 1475 ft | 166 kts | 71° |
| 2026-04-20 22:39 | 9.47763 | 138.01781 | 1264 ft | 154 kts | 70° |
| 2026-04-20 22:40 | 9.48081 | 138.02746 | 1114 ft | 139 kts | 71° |
| 2026-04-20 22:40 | 9.48384 | 138.03667 | 925 ft | 139 kts | 69° |
| 2026-04-20 22:40 | 9.48702 | 138.04628 | 738 ft | 145 kts | 71° |
| 2026-04-20 22:40 | 9.49017 | 138.05584 | 534 ft | 143 kts | 71° |
| 2026-04-20 22:41 | 9.49328 | 138.06529 | 359 ft | 138 kts | 70° |
| 2026-04-20 22:41 | 9.49642 | 138.07463 | 243 ft | 143 kts | 71° |
| 2026-04-20 22:41 | 9.49841 | 138.08078 | 211 ft | 131 kts | 65° |
| 2026-04-20 22:41 | 9.50064 | 138.08759 | 214 ft | 71 kts | 72° |
| 2026-04-20 22:42 | 9.50157 | 138.08967 | 212 ft | 14 kts | 46° |
| 2026-04-20 22:42 | 9.50159 | 138.09022 | 212 ft | 5 kts | 172° |
| 2026-04-20 22:42 | 9.50136 | 138.08983 | 215 ft | 12 kts | 253° |
| 2026-04-20 22:42 | 9.50099 | 138.08863 | 221 ft | 21 kts | 251° |
| 2026-04-20 22:43 | 9.50060 | 138.08755 | 216 ft | 15 kts | 249° |
| 2026-04-20 22:43 | 9.50029 | 138.08657 | 216 ft | 14 kts | 253° |
| 2026-04-20 22:43 | 9.49990 | 138.08569 | 218 ft | 13 kts | 225° |
| 2026-04-20 22:43 | 9.49910 | 138.08551 | 216 ft | 12 kts | 159° |
| 2026-04-20 22:44 | 9.49871 | 138.08617 | 212 ft | 12 kts | 78° |
| 2026-04-20 22:44 | 9.49870 | 138.08667 | 212 ft | 6 kts | 134° |
| 2026-04-20 22:44 | 9.49835 | 138.08656 | 216 ft | 4 kts | 236° |
| 2026-04-20 22:44 | 9.49832 | 138.08643 | 216 ft | 0 kts | 255° |
| 2026-04-20 22:45 | 9.49831 | 138.08640 | 215 ft | 0 kts | 254° |